Time;durP1;ratioP1;P1;durP2;ratioP2;P2;SDS_P1;SDS_P2;PMS_P1;PMS_P2;Temp;Humidity;BMP_temperature;BMP_pressure;BME280_temperature;BME280_humidity;BME280_pressure;Samples;Min_cycle;Max_cycle;Signal;HPM_P1;HPM_P2
2022/06/18 00:00:58;;;;;;;0.40;0.40;;;;;;;10.62;98.30;98991.50;4770471;30;20086;-94
2022/06/18 00:03:25;;;;;;;0.40;0.40;;;;;;;10.65;98.17;98993.72;4770665;30;20055;-91
2022/06/18 00:05:55;;;;;;;0.40;0.40;;;;;;;10.66;97.92;98992.66;4762733;30;20064;-93
2022/06/18 00:08:26;;;;;;;0.40;0.40;;;;;;;10.67;98.01;98996.97;4770932;30;20056;-95
2022/06/18 00:13:55;;;;;;;0.40;0.40;;;;;;;10.62;97.42;98999.59;4767188;30;20059;-95
2022/06/18 00:16:22;;;;;;;0.40;0.40;;;;;;;10.61;97.51;98995.28;4766956;30;20082;-94
2022/06/18 00:18:49;;;;;;;0.40;0.40;;;;;;;10.56;97.42;99003.28;4770591;30;20115;-95
2022/06/18 00:21:25;;;;;;;0.40;0.40;;;;;;;10.41;97.26;99003.84;4770386;30;20059;-92
2022/06/18 00:23:53;;;;;;;0.40;0.40;;;;;;;10.31;97.80;98998.28;4765263;30;20119;-95
2022/06/18 00:26:20;;;;;;;0.40;0.40;;;;;;;10.26;97.89;98995.44;4769958;30;20060;-94
2022/06/18 00:28:47;;;;;;;0.40;0.40;;;;;;;10.30;98.69;99000.13;4765374;30;20097;-95
2022/06/18 00:31:14;;;;;;;0.40;0.40;;;;;;;10.26;98.66;98998.97;4769575;30;20052;-94
2022/06/18 00:33:42;;;;;;;0.40;0.40;;;;;;;10.26;98.85;99000.84;4773342;30;20056;-96
2022/06/18 00:36:14;;;;;;;0.40;0.40;;;;;;;10.20;98.69;98997.22;4766661;30;20063;-95
2022/06/18 00:38:43;;;;;;;0.40;0.40;;;;;;;10.12;98.75;99008.41;4770572;30;20082;-94
2022/06/18 00:41:23;;;;;;;0.40;0.40;;;;;;;10.06;99.06;99006.69;4770890;30;20052;-95
2022/06/18 00:44:03;;;;;;;0.40;0.40;;;;;;;9.98;99.09;99008.69;4793129;30;20108;-95
2022/06/18 00:46:41;;;;;;;0.40;0.40;;;;;;;9.97;99.82;99009.75;4778573;30;20142;-95
2022/06/18 00:49:42;;;;;;;0.40;0.40;;;;;;;10.04;100.00;99011.50;4780788;30;20123;-94
2022/06/18 00:52:23;;;;;;;;;;;;;;;10.00;100.00;99008.44;4787661;30;20158;-96
2022/06/18 00:55:00;;;;;;;0.50;0.50;;;;;;;10.02;100.00;99019.00;4784760;29;19930;-93
2022/06/18 00:58:18;;;;;;;0.40;0.40;;;;;;;10.23;100.00;99018.34;4777064;30;20063;-93
2022/06/18 01:00:47;;;;;;;0.40;0.40;;;;;;;10.32;99.56;99022.28;4755966;30;20060;-95
2022/06/18 01:03:25;;;;;;;0.40;0.40;;;;;;;10.33;99.05;99018.56;4755994;30;20493;-95
2022/06/18 01:05:57;;;;;;;0.40;0.40;;;;;;;10.28;98.94;99023.84;4740747;30;20059;-93
2022/06/18 01:08:27;;;;;;;0.40;0.40;;;;;;;10.37;99.01;99029.66;4740702;30;20141;-94
2022/06/18 01:10:58;;;;;;;0.40;0.40;;;;;;;10.43;98.83;99028.69;4740969;30;20068;-94
2022/06/18 01:13:33;;;;;;;0.50;0.50;;;;;;;10.51;98.17;99032.88;4726901;30;20056;-96
2022/06/18 01:16:02;;;;;;;0.40;0.40;;;;;;;10.59;97.75;99036.00;4742292;30;20070;-94
2022/06/18 01:18:29;;;;;;;0.40;0.40;;;;;;;10.65;96.95;99034.19;4742639;30;20060;-94
2022/06/18 01:21:21;;;;;;;0.40;0.40;;;;;;;10.73;96.09;99044.56;4757024;30;20059;-93
2022/06/18 01:24:18;;;;;;;0.40;0.40;;;;;;;10.71;95.49;99035.94;4747631;30;20099;-95
2022/06/18 01:26:48;;;;;;;0.40;0.40;;;;;;;10.70;95.12;99036.16;4772062;29;20097;-92
2022/06/18 01:29:15;;;;;;;0.40;0.40;;;;;;;10.72;94.90;99042.16;4756985;30;20072;-94
2022/06/18 01:31:43;;;;;;;0.40;0.40;;;;;;;10.76;94.41;99043.28;4765372;30;20063;-94
2022/06/18 01:34:11;;;;;;;0.40;0.40;;;;;;;10.80;93.82;99053.34;4790794;30;20048;-96
2022/06/18 01:36:43;;;;;;;0.40;0.40;;;;;;;10.80;93.40;99045.25;4791496;30;20120;-95
2022/06/18 01:39:18;;;;;;;0.40;0.40;;;;;;;10.81;93.23;99052.28;4777661;30;20549;-94
2022/06/18 01:41:51;;;;;;;0.40;0.40;;;;;;;10.85;92.78;99053.41;4791278;30;20052;-96
2022/06/18 01:44:28;;;;;;;0.40;0.40;;;;;;;10.90;92.23;99055.41;4791039;30;20071;-95
2022/06/18 01:47:04;;;;;;;0.40;0.40;;;;;;;10.89;91.82;99061.03;4774912;30;20098;-94
2022/06/18 01:49:41;;;;;;;0.45;0.45;;;;;;;10.93;91.36;99064.88;4778500;30;20107;-96
2022/06/18 01:52:10;;;;;;;0.40;0.40;;;;;;;10.94;90.95;99050.31;4765277;30;20408;-94
2022/06/18 01:54:48;;;;;;;0.40;0.40;;;;;;;10.92;90.87;99058.69;4793151;30;20052;-95
2022/06/18 01:57:23;;;;;;;0.50;0.50;;;;;;;10.93;90.70;99060.28;4779242;30;20165;-93
2022/06/18 01:59:57;;;;;;;0.50;0.50;;;;;;;11.00;90.31;99060.97;4794170;30;20047;-94
2022/06/18 02:02:42;;;;;;;0.50;0.50;;;;;;;11.03;89.75;99054.25;4791916;30;20115;-94
2022/06/18 02:05:13;;;;;;;0.40;0.40;;;;;;;11.04;89.63;99059.41;4779408;30;20085;-95
2022/06/18 02:07:44;;;;;;;0.43;0.43;;;;;;;11.02;89.72;99063.44;4764588;30;20417;-93
2022/06/18 02:10:37;;;;;;;0.40;0.40;;;;;;;11.07;89.31;99058.91;4779958;30;20189;-95
2022/06/18 02:13:05;;;;;;;0.40;0.40;;;;;;;11.10;88.96;99070.28;4784299;30;20058;-93
2022/06/18 02:15:37;;;;;;;0.50;0.50;;;;;;;11.13;88.79;99073.31;4803017;29;20094;-94
2022/06/18 02:18:07;;;;;;;0.40;0.40;;;;;;;11.18;88.62;99073.38;4808775;29;20043;-94
2022/06/18 02:20:49;;;;;;;0.40;0.40;;;;;;;11.24;88.19;99069.72;4776428;29;20091;-95
2022/06/18 02:23:31;;;;;;;0.40;0.40;;;;;;;11.30;87.87;99070.59;4767055;30;20058;-95
2022/06/18 02:25:58;;;;;;;0.43;0.43;;;;;;;11.34;87.16;99069.03;4794748;30;20396;-95
2022/06/18 02:28:36;;;;;;;0.40;0.40;;;;;;;11.43;86.57;99070.25;4765940;30;20063;-96
2022/06/18 02:31:04;;;;;;;0.40;0.40;;;;;;;11.51;85.96;99063.59;4793983;30;20055;-94
2022/06/18 02:33:47;;;;;;;0.40;0.40;;;;;;;11.64;84.79;99065.94;4780369;30;20056;-95
2022/06/18 02:36:33;;;;;;;0.40;0.40;;;;;;;11.73;84.39;99062.81;4781217;30;20059;-94
2022/06/18 02:39:22;;;;;;;0.40;0.40;;;;;;;11.79;83.59;99061.81;4781415;30;20083;-95
2022/06/18 02:41:50;;;;;;;0.40;0.40;;;;;;;11.86;82.55;99057.03;4779005;30;20085;-95
2022/06/18 02:44:17;;;;;;;0.40;0.40;;;;;;;11.90;81.82;99050.06;4781608;30;20074;-93
2022/06/18 02:46:46;;;;;;;0.40;0.40;;;;;;;12.01;80.84;99056.44;4784734;30;20056;-94
2022/06/18 02:49:14;;;;;;;0.40;0.40;;;;;;;12.08;80.41;99059.78;4784183;30;20079;-95
2022/06/18 02:51:51;;;;;;;0.50;0.50;;;;;;;12.14;79.57;99059.56;4781412;30;20055;-95
2022/06/18 02:54:33;;;;;;;0.40;0.40;;;;;;;12.21;78.96;99050.44;4782280;30;20056;-96
2022/06/18 02:57:03;;;;;;;0.40;0.40;;;;;;;12.31;77.73;99055.97;4783413;30;20579;-94
2022/06/18 02:59:31;;;;;;;0.40;0.40;;;;;;;12.37;77.24;99041.41;4782203;30;20064;-94
2022/06/18 03:01:59;;;;;;;0.40;0.40;;;;;;;12.43;76.70;99044.97;4798604;30;20052;-94
2022/06/18 03:04:26;;;;;;;0.40;0.40;;;;;;;12.45;76.27;99046.34;4780800;30;20063;-95
2022/06/18 03:07:12;;;;;;;0.40;0.40;;;;;;;12.56;75.94;99050.00;4768059;30;20056;-96
2022/06/18 03:12:26;;;;;;;0.40;0.40;;;;;;;12.67;75.02;99050.91;4781360;30;20060;-94
2022/06/18 03:14:55;;;;;;;0.40;0.40;;;;;;;12.70;74.48;99042.25;4766069;30;20063;-96
2022/06/18 03:17:37;;;;;;;0.40;0.40;;;;;;;12.76;74.41;99052.03;4780611;30;20550;-94
2022/06/18 03:20:09;;;;;;;0.40;0.40;;;;;;;12.84;73.97;99057.00;4797799;30;20059;-95
2022/06/18 03:22:36;;;;;;;0.40;0.40;;;;;;;12.88;73.64;99054.59;4780665;30;20055;-93
2022/06/18 03:25:05;;;;;;;0.40;0.40;;;;;;;12.92;73.95;99048.41;4803631;30;20039;-92
2022/06/18 03:27:32;;;;;;;0.40;0.40;;;;;;;12.97;73.69;99045.75;4806790;29;20171;-92
2022/06/18 03:30:04;;;;;;;0.40;0.40;;;;;;;13.05;73.52;99059.88;4806463;29;20105;-95
2022/06/18 03:32:32;;;;;;;0.40;0.40;;;;;;;13.08;73.38;99051.22;4776537;30;20036;-94
2022/06/18 03:34:59;;;;;;;0.40;0.40;;;;;;;13.14;73.17;99055.59;4772307;30;20055;-94
2022/06/18 03:37:40;;;;;;;0.40;0.40;;;;;;;13.20;73.07;99052.69;4768154;30;20056;-96
2022/06/18 03:40:11;;;;;;;0.43;0.43;;;;;;;13.28;73.07;99051.41;4785198;30;20082;-95
2022/06/18 03:42:40;;;;;;;0.40;0.40;;;;;;;13.34;72.77;99049.53;4799608;30;20055;-96
2022/06/18 03:45:38;;;;;;;0.40;0.40;;;;;;;13.42;72.50;99047.16;4788402;30;20048;-95
2022/06/18 03:48:16;;;;;;;0.40;0.40;;;;;;;13.47;72.00;99053.69;4787948;30;20074;-93
2022/06/18 03:50:44;;;;;;;0.40;0.40;;;;;;;13.53;71.77;99049.94;4805460;29;20036;-94
2022/06/18 03:53:12;;;;;;;0.40;0.40;;;;;;;13.59;71.15;99052.41;4790331;30;20052;-95
2022/06/18 03:56:12;;;;;;;0.40;0.40;;;;;;;13.70;70.83;99058.72;4798848;30;20079;-95
2022/06/18 03:58:52;;;;;;;0.40;0.40;;;;;;;13.74;70.79;99057.09;4787022;30;20063;-95
2022/06/18 04:01:31;;;;;;;0.40;0.40;;;;;;;13.82;70.35;99051.19;4783214;30;20097;-96
2022/06/18 04:04:13;;;;;;;0.40;0.40;;;;;;;13.90;70.26;99052.56;4782653;30;20112;-95
2022/06/18 04:06:55;;;;;;;0.40;0.40;;;;;;;13.95;69.54;99055.31;4770696;30;20044;-94
2022/06/18 04:09:35;;;;;;;0.40;0.40;;;;;;;14.03;69.06;99059.41;4781205;30;20067;-95
2022/06/18 04:12:05;;;;;;;0.40;0.40;;;;;;;14.14;68.59;99055.63;4795678;29;20059;-94
2022/06/18 04:15:42;;;;;;;0.40;0.40;;;;;;;14.29;68.15;99050.25;4798162;30;20115;-95
2022/06/18 04:18:26;;;;;;;0.40;0.40;;;;;;;14.35;67.70;99053.78;4771146;30;20060;-95
2022/06/18 04:21:11;;;;;;;0.40;0.40;;;;;;;14.40;67.33;99059.22;4779183;29;20052;-93
2022/06/18 04:23:52;;;;;;;0.40;0.40;;;;;;;14.51;66.93;99055.47;4791448;29;20060;-94
2022/06/18 04:26:21;;;;;;;0.40;0.40;;;;;;;14.63;65.93;99059.84;4798765;30;20432;-95
2022/06/18 04:28:48;;;;;;;0.40;0.40;;;;;;;14.70;65.01;99052.25;4797546;30;20056;-96
2022/06/18 04:31:17;;;;;;;0.40;0.40;;;;;;;14.70;65.16;99066.63;4797641;30;20052;-96
2022/06/18 04:33:46;;;;;;;0.40;0.40;;;;;;;14.74;65.24;99064.22;4799372;30;20056;-96
2022/06/18 04:36:41;;;;;;;0.40;0.40;;;;;;;14.79;64.92;99068.84;4788968;30;20063;-96
2022/06/18 04:39:12;;;;;;;0.30;0.30;;;;;;;14.82;64.93;99068.28;4799827;30;20071;-96
2022/06/18 04:42:06;;;;;;;0.40;0.40;;;;;;;14.88;64.77;99067.19;4763792;30;20064;-96
2022/06/18 04:44:34;;;;;;;0.40;0.40;;;;;;;14.92;63.91;99068.28;4764814;30;20127;-94
2022/06/18 04:47:09;;;;;;;0.40;0.40;;;;;;;14.97;63.62;99065.56;4763736;30;20067;-96
2022/06/18 04:49:37;;;;;;;0.40;0.40;;;;;;;15.00;62.80;99062.31;4766947;30;20075;-92
2022/06/18 04:52:06;;;;;;;0.40;0.40;;;;;;;14.99;62.66;99063.41;4761234;30;20112;-93
2022/06/18 04:54:40;;;;;;;0.40;0.40;;;;;;;15.01;62.04;99065.84;4752224;30;20113;-93
2022/06/18 04:57:32;;;;;;;0.40;0.40;;;;;;;15.09;62.27;99065.28;4759783;30;20056;-93
2022/06/18 04:59:59;;;;;;;0.40;0.40;;;;;;;15.18;61.96;99071.81;4753115;30;20071;-90
2022/06/18 05:02:33;;;;;;;0.40;0.40;;;;;;;15.31;61.57;99075.88;4748989;30;20056;-92
2022/06/18 05:05:23;;;;;;;0.40;0.40;;;;;;;15.45;61.36;99070.72;4753742;30;20594;-88
2022/06/18 05:08:05;;;;;;;0.40;0.40;;;;;;;15.60;61.05;99067.94;4729376;30;20068;-92
2022/06/18 05:10:53;;;;;;;0.40;0.40;;;;;;;15.64;59.93;99079.09;4766712;30;20086;-89
2022/06/18 05:13:35;;;;;;;0.40;0.40;;;;;;;15.71;60.00;99085.09;4748397;30;20064;-93
2022/06/18 05:16:23;;;;;;;0.40;0.40;;;;;;;15.93;59.64;99088.28;4761278;30;20060;-94
2022/06/18 05:18:50;;;;;;;0.40;0.40;;;;;;;16.03;59.08;99082.81;4761686;30;20048;-92
2022/06/18 05:21:17;;;;;;;0.40;0.40;;;;;;;16.02;58.22;99081.16;4782609;30;20067;-93
2022/06/18 05:23:44;;;;;;;0.40;0.40;;;;;;;15.96;58.23;99076.03;4788915;30;20052;-95
2022/06/18 05:26:17;;;;;;;0.40;0.40;;;;;;;15.93;57.77;99082.84;4763319;30;20523;-92
2022/06/18 05:28:46;;;;;;;0.40;0.40;;;;;;;16.07;58.12;99083.03;4772340;30;20142;-94
2022/06/18 05:31:28;;;;;;;0.40;0.40;;;;;;;16.27;57.53;99084.88;4794735;29;20079;-91
2022/06/18 05:33:55;;;;;;;0.30;0.30;;;;;;;16.42;56.83;99092.97;4791196;29;20090;-91
2022/06/18 05:36:23;;;;;;;0.40;0.40;;;;;;;16.39;56.19;99077.19;4784029;24;20099;-89
2022/06/18 05:38:59;;;;;;;0.40;0.40;;;;;;;16.43;56.38;99067.38;4907132;24;20077;-94
2022/06/18 05:41:30;;;;;;;0.40;0.40;;;;;;;16.50;55.31;99068.94;4793677;29;20028;-96
2022/06/18 05:43:59;;;;;;;0.40;0.40;;;;;;;16.61;54.72;99084.97;4788748;29;20066;-95
2022/06/18 05:46:32;;;;;;;0.40;0.40;;;;;;;16.58;54.26;99081.97;4786187;30;20032;-96
2022/06/18 05:49:37;;;;;;;0.40;0.40;;;;;;;16.58;54.13;99081.97;4900300;24;20150;-95
2022/06/18 05:52:06;;;;;;;0.40;0.40;;;;;;;16.72;54.23;99088.44;4828329;24;20091;-91
2022/06/18 05:54:46;;;;;;;0.40;0.40;;;;;;;16.76;53.36;99073.16;4786258;30;20071;-92
2022/06/18 05:57:56;;;;;;;0.40;0.40;;;;;;;16.90;52.88;99084.25;4781170;30;20042;-91
2022/06/18 06:06:45;;;;;;;0.40;0.40;;;;;;;16.82;52.71;99076.69;1760697;24;20056;-92
2022/06/18 06:11:28;;;;;;;0.40;0.40;;;;;;;17.00;51.77;99067.00;4773417;29;20079;-87
2022/06/18 06:12:05;;;;;;;0.32;0.32;;;;;;;17.20;50.96;99087.81;4790708;24;20094;-92
2022/06/18 06:14:34;;;;;;;0.40;0.40;;;;;;;16.92;50.98;99070.34;4774091;29;20039;-90
2022/06/18 06:17:28;;;;;;;0.40;0.40;;;;;;;17.07;50.52;99092.03;4808523;29;20036;-96
2022/06/18 06:20:21;;;;;;;0.40;0.40;;;;;;;16.96;51.09;99076.84;4744080;30;20041;-94
2022/06/18 06:23:32;;;;;;;0.30;0.30;;;;;;;17.17;51.21;99082.94;4754954;30;20059;-94
2022/06/18 06:27:27;;;;;;;0.40;0.40;;;;;;;17.41;50.51;99088.44;4751651;30;20119;-96
2022/06/18 06:30:03;;;;;;;0.40;0.40;;;;;;;17.37;49.42;99069.13;4755936;30;20040;-94
2022/06/18 06:38:55;;;;;;;0.40;0.40;;;;;;;17.93;48.43;99084.94;4510910;24;10001994;-94
2022/06/18 06:41:27;;;;;;;0.40;0.40;;;;;;;17.92;47.89;99072.34;4774059;30;20086;-94
2022/06/18 06:43:58;;;;;;;0.40;0.40;;;;;;;17.98;48.00;99098.50;4750374;30;20083;-93
2022/06/18 06:46:35;;;;;;;0.40;0.40;;;;;;;17.79;47.62;99072.22;4764545;30;20065;-96
2022/06/18 06:49:08;;;;;;;0.30;0.30;;;;;;;17.76;47.08;99079.88;4770119;29;20062;-95
2022/06/18 06:51:47;;;;;;;0.40;0.40;;;;;;;17.87;47.27;99086.06;4771282;30;20141;-93
2022/06/18 06:54:15;;;;;;;0.30;0.30;;;;;;;17.97;46.96;99080.50;4777082;30;20091;-92
2022/06/18 06:59:42;;;;;;;0.40;0.40;;;;;;;18.15;46.59;99095.31;4771816;29;20093;-92
2022/06/18 07:02:16;;;;;;;0.40;0.40;;;;;;;18.26;46.73;99095.19;4756988;30;20055;-91
2022/06/18 07:04:45;;;;;;;0.30;0.30;;;;;;;18.18;46.74;99086.53;4761856;30;20056;-91
2022/06/18 07:07:14;;;;;;;0.30;0.30;;;;;;;18.12;46.76;99093.16;4770621;30;20150;-87
2022/06/18 07:09:42;;;;;;;0.30;0.30;;;;;;;18.13;47.48;99092.06;4765844;30;20597;-89
2022/06/18 07:12:10;;;;;;;0.40;0.40;;;;;;;18.38;46.35;99092.81;4761437;30;20803;-89
2022/06/18 07:14:38;;;;;;;0.40;0.40;;;;;;;18.38;44.98;99085.47;4755005;30;20036;-90
2022/06/18 07:17:17;;;;;;;0.40;0.40;;;;;;;18.34;44.97;99100.81;4761393;30;20191;-91
2022/06/18 07:19:45;;;;;;;0.40;0.40;;;;;;;18.46;44.88;99092.19;4751774;30;20121;-91
2022/06/18 07:22:13;;;;;;;0.40;0.40;;;;;;;18.56;44.72;99086.56;4775872;30;20063;-90
2022/06/18 07:24:41;;;;;;;0.40;0.40;;;;;;;18.68;45.16;99088.03;4782796;30;20058;-95
2022/06/18 07:27:08;;;;;;;0.40;0.40;;;;;;;18.88;44.90;99090.50;4773298;30;20446;-89
2022/06/18 07:29:35;;;;;;;0.30;0.30;;;;;;;18.91;44.40;99078.97;4774255;30;20089;-89
2022/06/18 07:32:11;;;;;;;0.40;0.40;;;;;;;18.93;44.62;99070.47;4763394;30;20051;-92
2022/06/18 07:34:40;;;;;;;0.40;0.40;;;;;;;18.91;44.73;99083.63;4765878;30;20055;-89
2022/06/18 07:37:07;;;;;;;0.40;0.40;;;;;;;19.12;43.79;99093.13;4774930;30;20090;-90
2022/06/18 07:39:35;;;;;;;0.40;0.40;;;;;;;19.21;44.00;99085.03;4764386;30;20068;-92
2022/06/18 07:42:07;;;;;;;0.47;0.47;;;;;;;19.81;43.36;99076.06;4760338;30;20055;-95
2022/06/18 07:44:35;;;;;;;0.30;0.30;;;;;;;19.25;44.06;99080.59;4765077;30;20538;-92
2022/06/18 07:47:05;;;;;;;0.40;0.40;;;;;;;19.16;44.11;99068.72;4773663;30;20112;-93
2022/06/18 07:49:33;;;;;;;0.40;0.40;;;;;;;19.35;43.70;99074.97;4759288;30;20516;-89
2022/06/18 07:52:00;;;;;;;0.57;0.57;;;;;;;19.58;43.49;99072.38;4754221;30;20058;-88
2022/06/18 07:54:27;;;;;;;0.45;0.45;;;;;;;19.74;43.07;99081.94;4761767;30;20048;-89
2022/06/18 07:56:54;;;;;;;0.43;0.43;;;;;;;19.91;42.52;99062.97;4754933;30;20068;-90
2022/06/18 07:59:23;;;;;;;0.50;0.50;;;;;;;20.39;42.21;99074.59;4754543;30;20063;-88
2022/06/18 08:01:50;;;;;;;0.60;0.60;;;;;;;20.24;41.73;99079.28;4738342;30;20508;-86
2022/06/18 08:04:17;;;;;;;0.60;0.60;;;;;;;20.30;41.70;99075.31;4755922;30;20531;-87
2022/06/18 08:06:44;;;;;;;0.50;0.50;;;;;;;20.49;41.14;99074.38;4754631;30;20063;-88
2022/06/18 08:09:11;;;;;;;0.40;0.40;;;;;;;20.43;41.04;99081.06;4764852;30;20052;-88
2022/06/18 08:11:40;;;;;;;0.30;0.30;;;;;;;19.62;42.59;99081.59;4767547;30;20059;-88
2022/06/18 08:14:07;;;;;;;0.50;0.50;;;;;;;19.24;43.69;99081.72;4756096;30;20055;-88
2022/06/18 08:16:35;;;;;;;0.57;0.57;;;;;;;19.88;42.72;99071.00;4774130;30;20063;-88
2022/06/18 08:19:02;;;;;;;0.60;0.60;;;;;;;20.08;42.56;99070.59;4772623;30;20054;-89
2022/06/18 08:21:40;;;;;;;0.60;0.60;;;;;;;20.62;41.60;99062.59;4772360;30;20499;-88
2022/06/18 08:24:14;;;;;;;0.40;0.40;;;;;;;21.03;40.51;99067.09;4756908;30;20496;-88
2022/06/18 08:26:41;;;;;;;0.30;0.30;;;;;;;20.73;40.54;99063.16;4773669;30;20435;-88
2022/06/18 08:29:11;;;;;;;0.30;0.30;;;;;;;20.54;40.83;99071.53;4770949;30;20066;-89
2022/06/18 08:31:39;;;;;;;0.30;0.30;;;;;;;20.36;41.57;99054.09;4772586;30;20589;-90
2022/06/18 08:34:06;;;;;;;0.30;0.30;;;;;;;20.25;42.22;99064.44;4771421;30;20060;-88
2022/06/18 08:36:33;;;;;;;0.40;0.40;;;;;;;20.38;41.50;99068.28;4771547;30;20139;-89
2022/06/18 08:39:00;;;;;;;0.30;0.30;;;;;;;20.22;40.74;99070.56;4756093;30;20063;-89
2022/06/18 08:41:31;;;;;;;0.30;0.30;;;;;;;19.86;41.39;99063.06;4771589;30;20060;-90
2022/06/18 08:44:11;;;;;;;0.30;0.30;;;;;;;19.63;42.38;99069.53;4773585;30;20051;-89
2022/06/18 08:46:43;;;;;;;0.47;0.47;;;;;;;19.84;42.65;99062.56;4770959;30;20059;-88
2022/06/18 08:49:45;;;;;;;0.70;0.70;;;;;;;21.03;40.64;99063.53;4771356;30;20055;-89
2022/06/18 08:52:34;;;;;;;0.70;0.70;;;;;;;22.28;38.07;99059.63;4773304;30;20067;-90
2022/06/18 08:55:32;;;;;;;0.70;0.70;;;;;;;23.16;35.96;99063.22;4774518;30;20063;-89
2022/06/18 08:58:30;;;;;;;0.40;0.40;;;;;;;22.58;36.07;99061.75;4773789;30;20060;-89
2022/06/18 09:01:02;;;;;;;0.30;0.30;;;;;;;21.30;37.66;99060.66;4783364;30;20063;-89
2022/06/18 09:03:42;;;;;;;0.30;0.30;;;;;;;20.54;40.29;99066.03;4782311;30;20124;-90
2022/06/18 09:06:31;;;;;;;0.50;0.50;;;;;;;20.52;40.28;99065.53;4779913;30;20069;-89
2022/06/18 09:09:07;;;;;;;0.70;0.70;;;;;;;21.79;37.59;99069.78;4778413;30;20056;-90
2022/06/18 09:11:56;;;;;;;0.40;0.40;;;;;;;22.68;36.06;99056.75;4779490;30;20068;-90
2022/06/18 09:15:11;;;;;;;0.30;0.30;;;;;;;21.40;38.13;99065.09;4776393;30;20059;-89
2022/06/18 09:17:40;;;;;;;0.30;0.30;;;;;;;20.49;39.50;99046.97;4737985;30;20086;-90
2022/06/18 09:20:11;;;;;;;0.30;0.30;;;;;;;20.09;39.50;99060.44;4711422;30;20069;-89
2022/06/18 09:22:50;;;;;;;0.30;0.30;;;;;;;19.86;40.41;99056.78;4729448;30;20064;-91
2022/06/18 09:25:20;;;;;;;0.30;0.30;;;;;;;19.72;40.46;99058.72;4726240;30;20120;-89
2022/06/18 09:27:49;;;;;;;0.30;0.30;;;;;;;19.78;40.84;99061.06;4711537;30;20143;-89
2022/06/18 09:30:23;;;;;;;0.30;0.30;;;;;;;19.90;41.34;99052.31;4727152;30;20588;-90
2022/06/18 09:32:55;;;;;;;0.30;0.30;;;;;;;19.86;41.73;99054.88;4724761;30;20056;-89
2022/06/18 09:35:29;;;;;;;0.30;0.30;;;;;;;19.94;41.09;99050.59;4736142;30;20209;-89
2022/06/18 09:38:18;;;;;;;0.80;0.80;;;;;;;21.86;37.60;99056.41;4724925;30;20127;-90
2022/06/18 09:40:50;;;;;;;0.68;0.68;;;;;;;22.88;34.84;99065.47;4723741;30;20521;-90
2022/06/18 09:43:24;;;;;;;0.30;0.30;;;;;;;21.71;36.93;99054.09;4737959;30;20064;-90
2022/06/18 09:45:54;;;;;;;0.40;0.40;;;;;;;21.36;37.45;99044.84;4740364;30;20049;-90
2022/06/18 09:48:21;;;;;;;0.38;0.38;;;;;;;21.18;37.75;99057.66;4723956;30;20059;-89
2022/06/18 09:50:55;;;;;;;0.60;0.60;;;;;;;21.40;37.20;99045.88;4736116;30;20150;-91
2022/06/18 09:53:35;;;;;;;0.30;0.30;;;;;;;22.13;36.37;99040.00;4724087;30;20056;-89
2022/06/18 09:56:05;;;;;;;0.70;0.70;;;;;;;23.86;33.60;99041.78;4736963;30;20052;-91
2022/06/18 09:58:52;;;;;;;0.70;0.70;;;;;;;25.13;31.98;99034.38;4737648;30;20143;-92
2022/06/18 10:01:26;;;;;;;0.40;0.40;;;;;;;25.23;31.60;99034.78;4743789;30;20087;-91
2022/06/18 10:06:55;;;;;;;0.20;0.20;;;;;;;22.64;34.82;99041.22;4728747;30;20149;-92
2022/06/18 10:09:44;;;;;;;0.30;0.30;;;;;;;21.64;36.73;99043.56;4733121;30;20087;-92
2022/06/18 10:12:36;;;;;;;0.20;0.20;;;;;;;21.22;37.03;99044.94;4728949;30;20053;-91
2022/06/18 10:15:08;;;;;;;0.30;0.30;;;;;;;20.73;38.29;99035.72;4730413;30;20118;-91
2022/06/18 10:17:38;;;;;;;0.30;0.30;;;;;;;20.32;39.27;99037.44;4755568;30;20063;-90
2022/06/18 10:20:41;;;;;;;0.30;0.30;;;;;;;20.15;39.30;99037.28;4784864;30;20464;-91
2022/06/18 10:23:29;;;;;;;0.30;0.30;;;;;;;20.17;39.64;99040.53;4756216;30;20055;-90
2022/06/18 10:26:29;;;;;;;0.40;0.40;;;;;;;20.35;39.64;99039.56;4781014;30;20512;-91
2022/06/18 10:29:32;;;;;;;0.50;0.50;;;;;;;21.86;36.37;99042.69;4770139;30;20066;-89
2022/06/18 10:32:15;;;;;;;0.80;0.80;;;;;;;23.68;33.50;99041.03;4778872;30;20108;-92
2022/06/18 10:34:59;;;;;;;0.80;0.80;;;;;;;25.39;31.91;99034.91;4781205;30;20055;-91
2022/06/18 10:37:52;;;;;;;0.70;0.70;;;;;;;26.00;29.92;99042.47;4765193;30;20055;-92
2022/06/18 10:40:30;;;;;;;0.60;0.60;;;;;;;25.24;30.08;99054.91;4778928;30;20060;-92
2022/06/18 10:43:18;;;;;;;0.73;0.73;;;;;;;25.42;30.32;99034.25;4780849;30;20047;-92
2022/06/18 10:45:56;;;;;;;0.70;0.70;;;;;;;26.03;28.96;99036.25;4778560;30;20059;-92
2022/06/18 10:48:29;;;;;;;0.40;0.40;;;;;;;26.43;28.93;99043.00;4744999;30;20059;-92
2022/06/18 10:50:58;;;;;;;0.60;0.60;;;;;;;27.51;28.00;99047.66;4750637;30;20094;-92
2022/06/18 10:53:46;;;;;;;0.40;0.40;;;;;;;26.94;28.88;99029.47;4775376;30;20043;-92
2022/06/18 10:56:24;;;;;;;0.20;0.20;;;;;;;25.51;30.20;99059.78;4777004;30;20055;-93
2022/06/18 10:58:57;;;;;;;0.40;0.40;;;;;;;24.12;30.71;99030.59;4779293;30;20059;-93
2022/06/18 11:01:31;;;;;;;0.30;0.30;;;;;;;23.58;32.14;99041.41;4766821;30;20086;-92
2022/06/18 11:04:01;;;;;;;0.38;0.38;;;;;;;24.36;31.33;99029.19;4782847;30;20079;-91
2022/06/18 11:06:34;;;;;;;0.30;0.30;;;;;;;25.69;28.45;99018.94;4768976;30;20059;-92
2022/06/18 11:09:02;;;;;;;0.80;0.80;;;;;;;26.32;27.97;99009.47;4782203;30;20052;-94
2022/06/18 11:11:36;;;;;;;0.20;0.20;;;;;;;24.77;30.22;99031.13;4762937;30;20079;-94
2022/06/18 11:14:18;;;;;;;0.30;0.30;;;;;;;23.94;33.32;99053.91;4774913;30;20094;-94
2022/06/18 11:16:51;;;;;;;0.70;0.70;;;;;;;25.34;31.80;99032.38;4760362;30;20055;-94
2022/06/18 11:19:26;;;;;;;0.63;0.63;;;;;;;26.69;30.34;99028.78;4777084;30;20062;-93
2022/06/18 11:21:54;;;;;;;0.40;0.40;;;;;;;27.64;29.22;99026.19;4776640;30;20067;-91
2022/06/18 11:24:33;;;;;;;0.60;0.60;;;;;;;28.37;27.63;99033.09;4773519;30;20048;-92
2022/06/18 11:27:13;;;;;;;0.50;0.50;;;;;;;27.79;26.11;99033.69;4759683;30;20052;-91
2022/06/18 11:30:08;;;;;;;0.50;0.50;;;;;;;27.17;26.71;99019.44;4775917;30;20119;-92
2022/06/18 11:32:41;;;;;;;0.40;0.40;;;;;;;26.35;27.68;99020.63;4748852;30;20083;-93
2022/06/18 11:35:20;;;;;;;0.50;0.50;;;;;;;26.54;27.58;99002.66;4774072;30;20176;-93
2022/06/18 11:38:06;;;;;;;0.60;0.60;;;;;;;26.98;27.25;99009.03;4777145;30;20063;-93
2022/06/18 11:40:33;;;;;;;0.50;0.50;;;;;;;26.94;27.10;99005.38;4780735;30;20055;-94
2022/06/18 11:43:26;;;;;;;0.50;0.50;;;;;;;26.53;26.20;98998.25;4779644;30;20055;-93
2022/06/18 11:46:02;;;;;;;0.60;0.60;;;;;;;26.84;25.37;98985.69;4768595;30;20111;-93
2022/06/18 11:48:42;;;;;;;0.60;0.60;;;;;;;27.75;24.99;98991.25;4784588;30;20062;-93
2022/06/18 11:51:22;;;;;;;0.25;0.25;;;;;;;28.10;24.90;98982.16;4786043;29;20084;-94
2022/06/18 11:54:23;;;;;;;0.20;0.20;;;;;;;26.11;27.40;98987.53;4787759;30;20059;-91
2022/06/18 11:56:58;;;;;;;0.30;0.30;;;;;;;24.59;29.12;98980.81;4732669;30;20060;-91
2022/06/18 11:59:52;;;;;;;0.30;0.30;;;;;;;23.92;30.21;98979.81;4746563;30;20060;-93
2022/06/18 12:02:27;;;;;;;0.30;0.30;;;;;;;23.29;31.47;98978.81;4737795;30;20059;-90
2022/06/18 12:05:03;;;;;;;0.20;0.20;;;;;;;23.14;31.61;98980.97;4746584;30;20052;-91
2022/06/18 12:07:30;;;;;;;0.40;0.40;;;;;;;23.43;31.19;98978.59;4725679;30;20206;-92
2022/06/18 12:09:58;;;;;;;0.40;0.40;;;;;;;23.94;31.19;98965.72;4726326;30;20555;-89
2022/06/18 12:12:49;;;;;;;0.80;0.80;;;;;;;24.96;30.54;98967.13;4737958;30;20080;-90
2022/06/18 12:15:27;;;;;;;0.75;0.75;;;;;;;26.25;28.53;98970.53;4739515;30;20060;-93
2022/06/18 12:18:14;;;;;;;0.80;0.80;;;;;;;27.69;26.27;98966.91;4733181;30;20059;-92
2022/06/18 12:20:56;;;;;;;0.20;0.20;;;;;;;27.00;27.84;98958.84;4732200;30;20583;-93
2022/06/18 12:23:32;;;;;;;0.20;0.20;;;;;;;25.22;30.58;98957.78;4713535;30;20071;-92
2022/06/18 12:26:05;;;;;;;0.40;0.40;;;;;;;26.81;28.60;98965.03;4737477;30;20127;-93
2022/06/18 12:29:00;;;;;;;0.70;0.70;;;;;;;28.89;26.34;98951.28;4736711;30;20049;-92
2022/06/18 12:31:38;;;;;;;0.13;0.13;;;;;;;27.95;27.05;98942.19;4741119;30;20056;-93
2022/06/18 12:34:30;;;;;;;0.20;0.20;;;;;;;26.70;28.58;98956.44;4770634;30;20052;-93
2022/06/18 12:37:05;;;;;;;0.50;0.50;;;;;;;28.28;27.15;98947.28;4780158;30;20079;-92
2022/06/18 12:39:51;;;;;;;0.50;0.50;;;;;;;29.74;24.96;98953.94;4784279;30;20067;-92
2022/06/18 12:42:30;;;;;;;0.50;0.50;;;;;;;30.54;24.08;98948.31;4782935;30;20131;-94